createdAt,value
2022-12-11T00:00:26.559Z,0.00
2022-12-11T00:01:26.530Z,0.00
2022-12-11T00:02:26.597Z,0.00
2022-12-11T00:03:26.551Z,0.00
2022-12-11T00:04:26.482Z,0.00
2022-12-11T00:05:26.495Z,0.00
2022-12-11T00:06:26.493Z,0.00
2022-12-11T00:07:26.454Z,0.00
2022-12-11T00:08:26.513Z,0.00
2022-12-11T00:09:26.443Z,0.00
2022-12-11T00:10:26.421Z,0.00
2022-12-11T00:11:26.421Z,0.00
2022-12-11T00:12:26.428Z,0.00
2022-12-11T00:13:26.394Z,0.00
2022-12-11T00:14:26.415Z,0.00
2022-12-11T00:15:26.392Z,0.00
2022-12-11T00:16:27.283Z,0.00
2022-12-11T00:17:26.374Z,0.00
2022-12-11T00:18:26.333Z,0.00
2022-12-11T00:19:26.345Z,0.00
2022-12-11T00:20:26.355Z,0.00
2022-12-11T00:21:26.314Z,0.00
2022-12-11T00:22:26.334Z,0.00
2022-12-11T00:23:26.285Z,0.00
2022-12-11T00:24:26.281Z,0.00
2022-12-11T00:25:26.276Z,0.00
2022-12-11T00:26:26.286Z,0.00
2022-12-11T00:27:26.255Z,0.00
2022-12-11T00:28:26.245Z,0.00
2022-12-11T00:29:26.236Z,0.00
2022-12-11T00:30:26.215Z,0.00
2022-12-11T00:31:26.265Z,0.00
2022-12-11T00:32:28.308Z,0.00
2022-12-11T00:33:26.188Z,0.00
2022-12-11T00:34:26.170Z,0.00
2022-12-11T00:35:26.206Z,0.00
2022-12-11T00:36:26.147Z,0.00
2022-12-11T00:37:26.184Z,0.00
2022-12-11T00:38:26.148Z,0.00
2022-12-11T00:39:26.126Z,0.00
2022-12-11T00:40:26.104Z,0.00
2022-12-11T00:41:26.132Z,0.00
2022-12-11T00:42:26.079Z,0.00
2022-12-11T00:43:26.094Z,0.00
2022-12-11T00:44:26.086Z,0.00
2022-12-11T00:45:26.081Z,0.00
2022-12-11T00:46:26.037Z,0.00
2022-12-11T00:47:26.042Z,0.00
2022-12-11T00:48:26.005Z,0.00
2022-12-11T00:49:26.007Z,0.00
2022-12-11T00:50:26.024Z,0.00
2022-12-11T00:51:25.987Z,0.00
2022-12-11T00:52:25.965Z,0.00
2022-12-11T00:53:26.039Z,0.00
2022-12-11T00:54:25.945Z,0.00
2022-12-11T00:55:25.958Z,0.00
2022-12-11T00:56:25.948Z,0.00
2022-12-11T00:57:25.916Z,0.00
2022-12-11T00:58:25.909Z,0.00
2022-12-11T00:59:25.899Z,0.00
2022-12-11T01:00:25.917Z,0.00
2022-12-11T01:01:25.929Z,0.00
2022-12-11T01:02:25.905Z,0.00
2022-12-11T01:03:25.847Z,0.00
2022-12-11T01:04:25.841Z,0.00
2022-12-11T01:05:25.849Z,0.00
2022-12-11T01:06:25.846Z,0.00
2022-12-11T01:07:25.808Z,0.00
2022-12-11T01:08:25.866Z,0.00
2022-12-11T01:09:25.788Z,0.00
2022-12-11T01:10:25.831Z,0.00
2022-12-11T01:11:25.780Z,0.00
2022-12-11T01:12:25.788Z,0.00
2022-12-11T01:13:25.745Z,0.00
2022-12-11T01:14:25.770Z,0.00
2022-12-11T01:15:25.730Z,0.00
2022-12-11T01:16:25.754Z,0.00
2022-12-11T01:17:25.727Z,0.00
2022-12-11T01:18:25.727Z,0.00
2022-12-11T01:19:25.679Z,0.00
2022-12-11T01:20:25.687Z,0.00
2022-12-11T01:21:25.660Z,0.00
2022-12-11T01:22:25.650Z,0.00
2022-12-11T01:23:25.649Z,0.00
2022-12-11T01:24:25.655Z,0.00
2022-12-11T01:25:25.630Z,0.00
2022-12-11T01:26:25.610Z,0.00
2022-12-11T01:27:25.608Z,0.00
2022-12-11T01:28:25.583Z,0.00
2022-12-11T01:29:25.609Z,0.00
2022-12-11T01:30:25.683Z,0.00
2022-12-11T01:31:25.578Z,0.00
2022-12-11T01:32:25.553Z,0.00
2022-12-11T01:33:25.541Z,0.00
2022-12-11T01:34:25.520Z,0.00
2022-12-11T01:35:25.532Z,0.00
2022-12-11T01:36:25.557Z,0.00
2022-12-11T01:37:25.493Z,0.00
2022-12-11T01:38:25.494Z,0.00
2022-12-11T01:39:25.492Z,0.00
2022-12-11T01:40:25.461Z,0.00
2022-12-11T01:41:25.500Z,0.00
2022-12-11T01:42:25.441Z,0.00
2022-12-11T01:43:25.433Z,0.00
2022-12-11T01:44:25.433Z,0.00
2022-12-11T01:45:27.056Z,0.00
2022-12-11T01:46:25.488Z,0.00
2022-12-11T01:47:25.420Z,0.00
2022-12-11T01:48:25.371Z,0.00
2022-12-11T01:49:25.361Z,0.00
2022-12-11T01:50:25.374Z,0.00
2022-12-11T01:51:25.361Z,0.00
2022-12-11T01:52:25.395Z,0.00
2022-12-11T01:53:25.349Z,0.00
2022-12-11T01:54:25.323Z,0.00
2022-12-11T01:55:25.304Z,0.00
2022-12-11T01:56:25.297Z,0.00
2022-12-11T01:57:25.332Z,0.00
2022-12-11T01:58:25.273Z,0.00
2022-12-11T01:59:25.287Z,0.00
2022-12-11T02:00:25.256Z,0.00
2022-12-11T02:01:25.269Z,0.00
2022-12-11T02:02:25.310Z,0.00
2022-12-11T02:03:25.222Z,0.00
2022-12-11T02:04:25.206Z,0.00
2022-12-11T02:05:25.216Z,0.00
2022-12-11T02:06:25.190Z,0.00
2022-12-11T02:07:25.206Z,0.00
2022-12-11T02:08:25.204Z,0.00
2022-12-11T02:09:25.153Z,0.00
2022-12-11T02:10:25.152Z,0.00
2022-12-11T02:11:25.165Z,0.00
2022-12-11T02:12:25.163Z,0.00
2022-12-11T02:13:25.164Z,0.00
2022-12-11T02:14:25.125Z,0.00
2022-12-11T02:15:25.094Z,0.00
2022-12-11T02:16:25.120Z,0.00
2022-12-11T02:17:25.090Z,0.00
2022-12-11T02:18:25.116Z,0.00
2022-12-11T02:19:25.046Z,0.00
2022-12-11T02:20:25.057Z,0.00
2022-12-11T02:21:25.027Z,0.00
2022-12-11T02:22:25.023Z,0.00
2022-12-11T02:23:25.043Z,0.00
2022-12-11T02:24:24.996Z,0.00
2022-12-11T02:25:24.996Z,0.00
2022-12-11T02:26:25.009Z,0.00
2022-12-11T02:27:24.969Z,0.00
2022-12-11T02:28:24.976Z,0.00
2022-12-11T02:29:24.953Z,0.00
2022-12-11T02:30:24.942Z,0.00
2022-12-11T02:31:24.978Z,0.00
2022-12-11T02:32:24.943Z,0.00
2022-12-11T02:33:24.948Z,0.00
2022-12-11T02:34:25.004Z,0.00
2022-12-11T02:35:24.899Z,0.00
2022-12-11T02:36:24.886Z,0.00
2022-12-11T02:37:24.865Z,0.00
2022-12-11T02:38:24.862Z,0.00
2022-12-11T02:39:24.839Z,0.00
2022-12-11T02:40:24.856Z,0.00
2022-12-11T02:41:24.863Z,0.00
2022-12-11T02:42:24.820Z,0.00
2022-12-11T02:43:24.805Z,0.00
2022-12-11T02:44:24.786Z,0.00
2022-12-11T02:45:24.818Z,0.00
2022-12-11T02:46:24.757Z,0.00
2022-12-11T02:47:24.759Z,0.00
2022-12-11T02:48:24.759Z,0.00
2022-12-11T02:49:24.737Z,0.00
2022-12-11T02:50:24.759Z,0.00
2022-12-11T02:51:24.719Z,0.00
2022-12-11T02:52:24.698Z,0.00
2022-12-11T02:53:24.701Z,0.00
2022-12-11T02:54:24.696Z,0.00
2022-12-11T02:55:24.680Z,0.00
2022-12-11T02:56:24.666Z,0.00
2022-12-11T02:57:24.668Z,0.00
2022-12-11T02:58:24.639Z,0.00
2022-12-11T02:59:24.631Z,0.00
2022-12-11T03:00:24.769Z,0.00
2022-12-11T03:01:24.635Z,0.00
2022-12-11T03:02:24.671Z,0.00
2022-12-11T03:03:24.580Z,0.00
2022-12-11T03:04:24.571Z,0.00
2022-12-11T03:05:24.568Z,0.00
2022-12-11T03:06:24.570Z,0.00
2022-12-11T03:07:24.542Z,0.00
2022-12-11T03:08:24.579Z,0.00
2022-12-11T03:09:24.531Z,0.00
2022-12-11T03:10:24.501Z,0.00
2022-12-11T03:11:24.520Z,0.00
2022-12-11T03:12:24.502Z,0.00
2022-12-11T03:13:24.481Z,0.00
2022-12-11T03:14:24.468Z,0.00
2022-12-11T03:15:24.480Z,0.00
2022-12-11T03:16:24.496Z,0.00
2022-12-11T03:17:24.453Z,0.00
2022-12-11T03:18:24.421Z,0.00
2022-12-11T03:19:24.422Z,0.00
2022-12-11T03:20:24.404Z,0.00
2022-12-11T03:21:24.423Z,0.00
2022-12-11T03:22:24.381Z,0.00
2022-12-11T03:23:24.394Z,0.00
2022-12-11T03:24:24.365Z,0.00
2022-12-11T03:25:24.352Z,0.00
2022-12-11T03:26:24.341Z,0.00
2022-12-11T03:27:24.352Z,0.00
2022-12-11T03:28:24.311Z,0.00
2022-12-11T03:29:24.324Z,0.00
2022-12-11T03:30:24.366Z,0.00
2022-12-11T03:31:24.288Z,0.00
2022-12-11T03:32:24.262Z,0.00
2022-12-11T03:33:24.278Z,0.00
2022-12-11T03:34:24.268Z,0.00
2022-12-11T03:35:24.263Z,0.00
2022-12-11T03:36:24.234Z,0.00
2022-12-11T03:37:24.222Z,0.00
2022-12-11T03:38:24.204Z,0.00
2022-12-11T03:39:24.222Z,0.00
2022-12-11T03:40:24.209Z,0.00
2022-12-11T03:41:24.224Z,0.00
2022-12-11T03:42:24.162Z,0.00
2022-12-11T03:43:24.171Z,0.00
2022-12-11T03:44:24.146Z,0.00
2022-12-11T03:45:24.137Z,0.00
2022-12-11T03:46:24.182Z,0.00
2022-12-11T03:47:24.136Z,0.00
2022-12-11T03:48:24.101Z,0.00
2022-12-11T03:49:24.106Z,0.00
2022-12-11T03:50:24.075Z,0.00
2022-12-11T03:51:24.102Z,0.00
2022-12-11T03:52:24.074Z,0.00
2022-12-11T03:53:24.077Z,0.00
2022-12-11T03:54:24.058Z,0.00
2022-12-11T03:55:24.040Z,0.00
2022-12-11T03:56:24.024Z,0.00
2022-12-11T03:57:24.014Z,0.00
2022-12-11T03:58:24.000Z,0.00
2022-12-11T03:59:24.027Z,0.00
2022-12-11T04:00:23.982Z,0.00
2022-12-11T04:01:24.047Z,0.00
2022-12-11T04:02:23.968Z,0.00
2022-12-11T04:03:23.948Z,0.00
2022-12-11T04:04:23.991Z,0.00
2022-12-11T04:05:23.957Z,0.00
2022-12-11T04:06:23.914Z,0.00
2022-12-11T04:07:23.919Z,0.00
2022-12-11T04:08:23.998Z,0.00
2022-12-11T04:09:23.888Z,0.00
2022-12-11T04:10:23.884Z,0.00
2022-12-11T04:11:23.889Z,0.00
2022-12-11T04:12:23.840Z,0.00
2022-12-11T04:13:23.863Z,0.00
2022-12-11T04:14:23.825Z,0.00
2022-12-11T04:15:23.826Z,0.00
2022-12-11T04:16:23.826Z,0.00
2022-12-11T04:17:23.827Z,0.00
2022-12-11T04:18:23.787Z,0.00
2022-12-11T04:19:23.777Z,0.00
2022-12-11T04:20:23.787Z,0.00
2022-12-11T04:21:23.755Z,0.00
2022-12-11T04:22:23.748Z,0.00
2022-12-11T04:23:23.768Z,0.00
2022-12-11T04:24:23.717Z,0.00
2022-12-11T04:25:23.740Z,0.00
2022-12-11T04:26:23.720Z,0.00
2022-12-11T04:27:23.695Z,0.00
2022-12-11T04:28:23.682Z,0.00
2022-12-11T04:29:23.704Z,0.00
2022-12-11T04:30:23.666Z,0.00
2022-12-11T04:31:23.717Z,0.00
2022-12-11T04:32:23.629Z,0.00
2022-12-11T04:33:23.666Z,0.00
2022-12-11T04:34:23.622Z,0.00
2022-12-11T04:35:23.619Z,0.00
2022-12-11T04:36:23.590Z,0.00
2022-12-11T04:37:23.579Z,0.00
2022-12-11T04:38:23.557Z,0.00
2022-12-11T04:39:23.582Z,0.00
2022-12-11T04:40:23.549Z,0.00
2022-12-11T04:41:23.563Z,0.00
2022-12-11T04:42:23.554Z,0.00
2022-12-11T04:43:23.525Z,0.00
2022-12-11T04:44:23.510Z,0.00
2022-12-11T04:45:23.506Z,0.00
2022-12-11T04:46:23.514Z,0.00
2022-12-11T04:47:23.502Z,0.00
2022-12-11T04:48:23.487Z,0.00
2022-12-11T04:49:23.461Z,0.00
2022-12-11T04:50:23.441Z,0.00
2022-12-11T04:51:23.441Z,0.00
2022-12-11T04:52:23.422Z,0.00
2022-12-11T04:53:23.441Z,0.00
2022-12-11T04:54:23.449Z,0.00
2022-12-11T04:55:23.423Z,0.00
2022-12-11T04:56:23.391Z,0.00
2022-12-11T04:57:23.382Z,0.00
2022-12-11T04:58:23.376Z,0.00
2022-12-11T04:59:23.400Z,0.00
2022-12-11T05:00:23.332Z,0.00
2022-12-11T05:01:23.431Z,0.00
2022-12-11T05:02:23.364Z,0.00
2022-12-11T05:03:23.322Z,0.00
2022-12-11T05:04:23.364Z,0.00
2022-12-11T05:05:23.336Z,0.00
2022-12-11T05:06:23.290Z,0.00
2022-12-11T05:07:23.274Z,0.00
2022-12-11T05:08:23.300Z,0.00
2022-12-11T05:09:23.326Z,0.00
2022-12-11T05:10:23.288Z,0.00
2022-12-11T05:11:23.214Z,0.00
2022-12-11T05:12:23.204Z,0.00
2022-12-11T05:13:23.232Z,0.00
2022-12-11T05:14:23.229Z,0.00
2022-12-11T05:15:23.196Z,0.00
2022-12-11T05:16:23.258Z,0.00
2022-12-11T05:17:23.166Z,0.00
2022-12-11T05:18:23.175Z,0.00
2022-12-11T05:19:23.126Z,0.00
2022-12-11T05:20:23.120Z,0.00
2022-12-11T05:21:23.138Z,0.00
2022-12-11T05:22:23.103Z,0.00
2022-12-11T05:23:23.141Z,0.00
2022-12-11T05:24:23.085Z,0.00
2022-12-11T05:25:23.085Z,0.00
2022-12-11T05:26:23.075Z,0.00
2022-12-11T05:27:23.107Z,0.00
2022-12-11T05:28:23.047Z,0.00
2022-12-11T05:29:23.028Z,0.00
2022-12-11T05:30:23.015Z,0.00
2022-12-11T05:31:23.042Z,0.00
2022-12-11T05:32:22.985Z,0.00
2022-12-11T05:33:23.027Z,0.00
2022-12-11T05:34:22.965Z,0.00
2022-12-11T05:35:22.966Z,0.00
2022-12-11T05:36:22.957Z,0.00
2022-12-11T05:37:22.959Z,0.00
2022-12-11T05:38:22.928Z,0.00
2022-12-11T05:39:22.916Z,0.00
2022-12-11T05:40:22.929Z,0.00
2022-12-11T05:41:22.907Z,0.00
2022-12-11T05:42:28.560Z,0.00
2022-12-11T05:43:23.920Z,0.00
2022-12-11T05:44:22.868Z,0.00
2022-12-11T05:45:22.854Z,0.00
2022-12-11T05:46:22.917Z,0.00
2022-12-11T05:47:22.827Z,0.00
2022-12-11T05:48:22.846Z,0.00
2022-12-11T05:49:27.435Z,0.00
2022-12-11T05:50:23.811Z,0.00
2022-12-11T05:51:22.797Z,0.00
2022-12-11T05:52:22.796Z,0.00
2022-12-11T05:53:22.797Z,0.00
2022-12-11T05:54:22.769Z,0.00
2022-12-11T05:55:22.761Z,0.00
2022-12-11T05:56:22.741Z,0.00
2022-12-11T05:57:22.748Z,0.00
2022-12-11T05:58:22.759Z,0.00
2022-12-11T05:59:22.710Z,0.00
2022-12-11T06:00:22.727Z,0.00
2022-12-11T06:01:22.680Z,0.00
2022-12-11T06:02:22.781Z,0.00
2022-12-11T06:03:22.679Z,0.00
2022-12-11T06:04:22.656Z,0.00
2022-12-11T06:05:22.660Z,0.00
2022-12-11T06:06:22.636Z,0.00
2022-12-11T06:07:22.616Z,0.00
2022-12-11T06:08:22.758Z,0.00
2022-12-11T06:09:22.590Z,0.00
2022-12-11T06:10:22.610Z,0.00
2022-12-11T06:11:24.353Z,0.00
2022-12-11T06:12:22.573Z,0.00
2022-12-11T06:13:22.578Z,0.00
2022-12-11T06:14:22.559Z,0.00
2022-12-11T06:15:22.542Z,0.00
2022-12-11T06:16:22.633Z,0.00
2022-12-11T06:17:22.511Z,0.00
2022-12-11T06:18:22.501Z,0.00
2022-12-11T06:19:22.509Z,0.00
2022-12-11T06:20:22.482Z,0.00
2022-12-11T06:21:22.471Z,0.00
2022-12-11T06:22:22.462Z,0.00
2022-12-11T06:23:22.453Z,0.00
2022-12-11T06:24:22.431Z,0.00
2022-12-11T06:25:22.471Z,0.00
2022-12-11T06:26:22.437Z,0.00
2022-12-11T06:27:22.413Z,0.00
2022-12-11T06:28:22.435Z,0.00
2022-12-11T06:29:22.422Z,0.00
2022-12-11T06:30:22.396Z,0.00
2022-12-11T06:31:23.443Z,0.00
2022-12-11T06:32:22.350Z,0.00
2022-12-11T06:33:22.351Z,0.00
2022-12-11T06:34:22.341Z,0.00
2022-12-11T06:35:22.343Z,0.00
2022-12-11T06:36:22.347Z,0.00
2022-12-11T06:37:22.295Z,0.00
2022-12-11T06:38:22.292Z,0.00
2022-12-11T06:39:22.308Z,0.00
2022-12-11T06:40:22.285Z,0.00
2022-12-11T06:41:22.280Z,0.00
2022-12-11T06:42:22.274Z,0.00
2022-12-11T06:43:22.245Z,0.00
2022-12-11T06:44:22.234Z,0.00
2022-12-11T06:45:22.226Z,0.00
2022-12-11T06:46:22.241Z,0.00
2022-12-11T06:47:22.233Z,0.00
2022-12-11T06:48:22.197Z,0.00
2022-12-11T06:49:22.164Z,0.00
2022-12-11T06:50:22.173Z,0.00
2022-12-11T06:51:22.158Z,0.00
2022-12-11T06:52:22.145Z,0.00
2022-12-11T06:53:22.145Z,0.00
2022-12-11T06:54:22.214Z,0.00
2022-12-11T06:55:22.106Z,0.00
2022-12-11T06:56:22.084Z,0.00
2022-12-11T06:57:22.094Z,0.00
2022-12-11T06:58:22.075Z,0.00
2022-12-11T06:59:22.097Z,0.00
2022-12-11T07:00:22.057Z,0.00
2022-12-11T07:01:22.123Z,0.00
2022-12-11T07:02:22.119Z,0.00
2022-12-11T07:03:22.029Z,0.00
2022-12-11T07:04:22.040Z,0.00
2022-12-11T07:05:22.028Z,0.00
2022-12-11T07:06:21.989Z,0.00
2022-12-11T07:07:21.991Z,0.00
2022-12-11T07:08:22.014Z,0.00
2022-12-11T07:09:21.956Z,0.00
2022-12-11T07:10:22.021Z,0.00
2022-12-11T07:11:21.946Z,0.00
2022-12-11T07:12:21.919Z,0.00
2022-12-11T07:13:21.931Z,0.00
2022-12-11T07:14:21.896Z,0.00
2022-12-11T07:15:21.896Z,0.00
2022-12-11T07:16:21.977Z,0.00
2022-12-11T07:17:21.892Z,0.00
2022-12-11T07:18:21.857Z,0.00
2022-12-11T07:19:21.948Z,0.00
2022-12-11T07:20:21.847Z,4.00
2022-12-11T07:21:21.836Z,4.00
2022-12-11T07:22:21.870Z,4.00
2022-12-11T07:23:21.808Z,4.00
2022-12-11T07:24:21.797Z,4.00
2022-12-11T07:25:21.779Z,4.00
2022-12-11T07:26:21.778Z,4.00
2022-12-11T07:27:21.791Z,4.00
2022-12-11T07:28:21.754Z,4.00
2022-12-11T07:29:21.740Z,4.00
2022-12-11T07:30:21.754Z,4.00
2022-12-11T07:31:21.868Z,4.00
2022-12-11T07:32:21.874Z,4.00
2022-12-11T07:33:21.708Z,4.00
2022-12-11T07:34:21.679Z,4.00
2022-12-11T07:35:21.709Z,4.00
2022-12-11T07:36:21.670Z,4.00
2022-12-11T07:37:21.736Z,4.00
2022-12-11T07:38:21.657Z,4.00
2022-12-11T07:39:21.652Z,4.00
2022-12-11T07:40:21.620Z,4.00
2022-12-11T07:41:21.620Z,4.00
2022-12-11T07:42:21.626Z,0.00
2022-12-11T07:43:21.745Z,4.00
2022-12-11T07:44:21.589Z,4.00
2022-12-11T07:45:21.580Z,4.00
2022-12-11T07:46:21.738Z,8.00
2022-12-11T07:47:21.559Z,8.00
2022-12-11T07:48:21.549Z,4.00
2022-12-11T07:49:21.581Z,4.00
2022-12-11T07:50:21.668Z,8.00
2022-12-11T07:51:21.511Z,8.00
2022-12-11T07:52:21.496Z,8.00
2022-12-11T07:53:21.509Z,8.00
2022-12-11T07:54:21.483Z,8.00
2022-12-11T07:55:22.552Z,8.00
2022-12-11T07:56:21.462Z,8.00
2022-12-11T07:57:21.461Z,8.00
2022-12-11T07:58:21.470Z,8.00
2022-12-11T07:59:21.719Z,8.00
2022-12-11T08:00:21.422Z,8.00
2022-12-11T08:01:21.566Z,8.00
2022-12-11T08:02:21.430Z,8.00
2022-12-11T08:03:21.401Z,8.00
2022-12-11T08:04:21.385Z,8.00
2022-12-11T08:05:21.394Z,8.00
2022-12-11T08:06:21.371Z,8.00
2022-12-11T08:07:21.373Z,12.00
2022-12-11T08:08:21.409Z,8.00
2022-12-11T08:09:21.545Z,8.00
2022-12-11T08:10:21.303Z,8.00
2022-12-11T08:11:21.310Z,12.00
2022-12-11T08:12:21.296Z,12.00
2022-12-11T08:13:21.311Z,12.00
2022-12-11T08:14:21.266Z,12.00
2022-12-11T08:15:21.268Z,12.00
2022-12-11T08:16:21.301Z,12.00
2022-12-11T08:17:25.903Z,12.00
2022-12-11T08:18:22.255Z,12.00
2022-12-11T08:19:21.219Z,16.00
2022-12-11T08:20:21.206Z,12.00
2022-12-11T08:21:21.199Z,16.00
2022-12-11T08:22:21.185Z,12.00
2022-12-11T08:23:21.165Z,12.00
2022-12-11T08:24:21.195Z,12.00
2022-12-11T08:25:21.156Z,12.00
2022-12-11T08:26:21.143Z,12.00
2022-12-11T08:27:21.138Z,12.00
2022-12-11T08:28:21.131Z,12.00
2022-12-11T08:29:21.105Z,16.00
2022-12-11T08:30:21.140Z,12.00
2022-12-11T08:31:21.148Z,16.00
2022-12-11T08:32:21.083Z,16.00
2022-12-11T08:33:21.074Z,16.00
2022-12-11T08:34:21.077Z,16.00
2022-12-11T08:35:21.140Z,16.00
2022-12-11T08:36:21.098Z,16.00
2022-12-11T08:37:21.028Z,16.00
2022-12-11T08:38:25.392Z,16.00
2022-12-11T08:39:23.785Z,16.00
2022-12-11T08:40:21.014Z,16.00
2022-12-11T08:41:22.710Z,16.00
2022-12-11T08:42:21.006Z,16.00
2022-12-11T08:43:20.956Z,16.00
2022-12-11T08:44:20.960Z,16.00
2022-12-11T08:45:20.957Z,16.00
2022-12-11T08:46:20.962Z,20.00
2022-12-11T08:47:20.938Z,16.00
2022-12-11T08:48:20.939Z,20.00
2022-12-11T08:49:20.906Z,20.00
2022-12-11T08:50:20.908Z,20.00
2022-12-11T08:51:20.857Z,20.00
2022-12-11T08:52:20.901Z,20.00
2022-12-11T08:53:20.871Z,20.00
2022-12-11T08:54:20.841Z,20.00
2022-12-11T08:55:20.869Z,20.00
2022-12-11T08:56:20.829Z,24.00
2022-12-11T08:57:20.798Z,20.00
2022-12-11T08:58:20.860Z,24.00
2022-12-11T08:59:20.782Z,24.00
2022-12-11T09:00:20.815Z,28.00
2022-12-11T09:01:21.888Z,28.00
2022-12-11T09:02:22.379Z,28.00
2022-12-11T09:03:20.741Z,28.00
2022-12-11T09:04:21.098Z,28.00
2022-12-11T09:05:20.793Z,24.00
2022-12-11T09:06:20.901Z,24.00
2022-12-11T09:07:20.707Z,24.00
2022-12-11T09:08:20.807Z,28.00
2022-12-11T09:09:20.728Z,28.00
2022-12-11T09:10:27.505Z,28.00
2022-12-11T09:11:20.655Z,24.00
2022-12-11T09:12:20.689Z,28.00
2022-12-11T09:13:20.631Z,24.00
2022-12-11T09:14:20.642Z,24.00
2022-12-11T09:15:20.633Z,24.00
2022-12-11T09:16:20.714Z,28.00
2022-12-11T09:17:20.622Z,24.00
2022-12-11T09:18:20.613Z,24.00
2022-12-11T09:19:20.582Z,28.00
2022-12-11T09:20:20.631Z,24.00
2022-12-11T09:21:20.568Z,28.00
2022-12-11T09:22:20.581Z,32.00
2022-12-11T09:23:20.552Z,28.00
2022-12-11T09:24:20.523Z,32.00
2022-12-11T09:25:20.511Z,28.00
2022-12-11T09:26:20.552Z,32.00
2022-12-11T09:27:20.494Z,28.00
2022-12-11T09:28:20.495Z,32.00
2022-12-11T09:29:20.488Z,28.00
2022-12-11T09:30:20.528Z,28.00
2022-12-11T09:31:20.501Z,32.00
2022-12-11T09:32:20.455Z,32.00
2022-12-11T09:33:20.424Z,28.00
2022-12-11T09:34:23.626Z,32.00
2022-12-11T09:35:21.425Z,28.00
2022-12-11T09:36:21.344Z,32.00
2022-12-11T09:37:20.386Z,32.00
2022-12-11T09:38:20.373Z,32.00
2022-12-11T09:39:20.408Z,36.00
2022-12-11T09:40:20.352Z,40.00
2022-12-11T09:41:20.352Z,40.00
2022-12-11T09:42:20.333Z,40.00
2022-12-11T09:43:20.322Z,44.00
2022-12-11T09:44:20.317Z,44.00
2022-12-11T09:45:20.352Z,52.00
2022-12-11T09:46:24.433Z,52.00
2022-12-11T09:47:20.461Z,52.00
2022-12-11T09:48:20.285Z,48.00
2022-12-11T09:49:20.280Z,48.00
2022-12-11T09:50:20.266Z,48.00
2022-12-11T09:51:20.255Z,48.00
2022-12-11T09:52:20.216Z,48.00
